createdAt,value
2023-04-29T00:01:48.837Z,14.43
2023-04-29T00:04:15.437Z,13.55
2023-04-29T00:06:44.986Z,14.35
2023-04-29T00:09:14.497Z,13.57
2023-04-29T00:11:41.148Z,14.65
2023-04-29T00:14:09.940Z,13.50
2023-04-29T00:16:39.131Z,13.18
2023-04-29T00:19:09.678Z,14.45
2023-04-29T00:21:38.647Z,14.53
2023-04-29T00:24:05.349Z,14.93
2023-04-29T00:26:36.187Z,14.02
2023-04-29T00:29:05.442Z,14.32
2023-04-29T00:31:32.782Z,14.57
2023-04-29T00:34:03.123Z,14.23
2023-04-29T00:36:33.565Z,13.85
2023-04-29T00:44:36.703Z,13.85
2023-04-29T00:47:15.295Z,13.23
2023-04-29T00:49:41.923Z,13.85
2023-04-29T00:52:12.010Z,14.00
2023-04-29T00:54:41.568Z,14.32
2023-04-29T00:57:15.335Z,14.27
2023-04-29T00:59:41.788Z,14.07
2023-04-29T01:02:08.248Z,13.25
2023-04-29T01:04:37.468Z,12.93
2023-04-29T01:07:19.678Z,12.95
2023-04-29T01:10:10.699Z,13.35
2023-04-29T01:12:44.762Z,11.93
2023-04-29T01:15:34.668Z,13.20
2023-04-29T01:18:12.250Z,12.45
2023-04-29T01:20:39.638Z,12.00
2023-04-29T01:23:08.689Z,12.48
2023-04-29T01:25:38.842Z,12.77
2023-04-29T01:28:40.751Z,12.30
2023-04-29T01:31:13.901Z,11.93
2023-04-29T01:37:23.266Z,12.48
2023-04-29T01:40:10.549Z,11.67
2023-04-29T01:43:08.009Z,11.60
2023-04-29T01:45:37.008Z,12.00
2023-04-29T01:48:05.196Z,11.95
2023-04-29T01:50:32.621Z,12.10
2023-04-29T01:52:59.050Z,11.17
2023-04-29T01:55:28.781Z,12.52
2023-04-29T01:57:55.531Z,12.38
2023-04-29T02:00:22.084Z,12.50
2023-04-29T02:02:48.698Z,12.23
2023-04-29T02:05:22.896Z,12.10
2023-04-29T02:07:50.313Z,11.60
2023-04-29T02:10:22.548Z,12.25
2023-04-29T02:12:48.933Z,11.77
2023-04-29T02:15:21.423Z,11.32
2023-04-29T02:17:51.726Z,12.20
2023-04-29T02:20:20.981Z,12.30
2023-04-29T02:22:50.478Z,12.32
2023-04-29T02:25:24.813Z,11.07
2023-04-29T02:27:53.982Z,10.85
2023-04-29T02:30:20.410Z,10.63
2023-04-29T02:33:09.852Z,10.73
2023-04-29T02:35:40.596Z,10.38
2023-04-29T02:38:08.957Z,9.73
2023-04-29T02:40:35.366Z,10.25
2023-04-29T02:43:01.736Z,9.67
2023-04-29T02:45:28.094Z,10.13
2023-04-29T02:47:58.765Z,9.43
2023-04-29T02:50:25.623Z,9.55
2023-04-29T02:52:52.085Z,9.10
2023-04-29T02:55:24.109Z,8.70
2023-04-29T02:57:54.251Z,9.50
2023-04-29T03:00:24.456Z,8.27
2023-04-29T03:02:54.122Z,9.57
2023-04-29T03:05:20.562Z,9.20
2023-04-29T03:07:55.733Z,9.13
2023-04-29T03:10:22.227Z,9.10
2023-04-29T03:12:53.609Z,9.05
2023-04-29T03:15:20.205Z,9.52
2023-04-29T03:17:46.756Z,9.15
2023-04-29T03:20:16.260Z,8.23
2023-04-29T03:22:45.469Z,9.00
2023-04-29T03:25:11.965Z,9.63
2023-04-29T03:27:39.206Z,9.30
2023-04-29T03:30:09.014Z,9.60
2023-04-29T03:32:35.603Z,9.77
2023-04-29T03:35:06.554Z,9.73
2023-04-29T03:37:33.101Z,10.05
2023-04-29T03:39:59.512Z,9.70
2023-04-29T03:42:25.985Z,9.30
2023-04-29T03:44:52.388Z,9.60
2023-04-29T03:47:18.798Z,9.98
2023-04-29T03:49:48.373Z,9.60
2023-04-29T03:52:15.997Z,9.52
2023-04-29T03:54:42.647Z,10.40
2023-04-29T03:57:09.033Z,10.40
2023-04-29T04:02:23.023Z,9.70
2023-04-29T04:04:55.146Z,9.40
2023-04-29T04:07:23.821Z,10.27
2023-04-29T04:09:53.555Z,10.43
2023-04-29T04:12:28.058Z,9.07
2023-04-29T04:14:55.389Z,9.30
2023-04-29T04:17:23.870Z,8.63
2023-04-29T04:20:00.279Z,9.52
2023-04-29T04:22:29.194Z,8.80
2023-04-29T04:24:58.382Z,9.07
2023-04-29T04:27:24.748Z,9.35
2023-04-29T04:29:57.746Z,8.65
2023-04-29T04:32:24.232Z,8.38
2023-04-29T04:34:51.025Z,8.30
2023-04-29T04:40:07.741Z,8.35
2023-04-29T04:42:34.092Z,8.63
2023-04-29T04:45:06.460Z,8.15
2023-04-29T04:47:32.871Z,7.67
2023-04-29T04:49:59.283Z,7.78
2023-04-29T04:55:13.207Z,7.63
2023-04-29T04:57:42.381Z,8.15
2023-04-29T05:00:15.038Z,8.27
2023-04-29T05:02:41.842Z,7.88
2023-04-29T05:05:08.891Z,8.43
2023-04-29T05:07:39.726Z,8.35
2023-04-29T05:10:07.040Z,8.18
2023-04-29T05:15:20.064Z,8.23
2023-04-29T05:17:49.104Z,7.95
2023-04-29T05:20:15.593Z,7.85
2023-04-29T05:22:44.372Z,8.00
2023-04-29T05:25:13.334Z,7.00
2023-04-29T05:27:40.011Z,7.13
2023-04-29T05:30:12.835Z,8.00
2023-04-29T05:32:39.283Z,7.95
2023-04-29T05:35:07.408Z,7.93
2023-04-29T05:37:37.291Z,8.17
2023-04-29T05:40:11.438Z,8.23
2023-04-29T05:42:44.820Z,7.43
2023-04-29T05:45:12.360Z,7.88
2023-04-29T05:47:42.156Z,8.07
2023-04-29T05:50:08.565Z,8.10
2023-04-29T05:52:34.934Z,8.05
2023-04-29T05:55:11.329Z,8.05
2023-04-29T05:57:37.820Z,7.78
2023-04-29T06:00:17.278Z,8.07
2023-04-29T06:02:55.207Z,8.33
2023-04-29T06:08:14.116Z,8.70
2023-04-29T06:10:40.508Z,8.38
2023-04-29T06:13:06.869Z,8.82
2023-04-29T06:15:41.531Z,8.67
2023-04-29T06:18:07.966Z,7.97
2023-04-29T06:20:37.587Z,8.38
2023-04-29T06:23:07.549Z,8.55
2023-04-29T06:25:34.133Z,8.63
2023-04-29T06:28:01.004Z,8.03
2023-04-29T06:30:34.735Z,8.65
2023-04-29T06:33:07.006Z,8.93
2023-04-29T06:35:40.140Z,8.60
2023-04-29T06:38:10.969Z,8.25
2023-04-29T06:40:37.467Z,7.90
2023-04-29T06:43:04.492Z,7.93
2023-04-29T06:45:35.165Z,7.75
2023-04-29T06:48:01.630Z,8.00
2023-04-29T06:50:28.429Z,8.07
2023-04-29T06:52:57.662Z,7.77
2023-04-29T06:55:27.301Z,7.32
2023-04-29T06:58:01.367Z,8.30
2023-04-29T07:00:30.666Z,7.50
2023-04-29T07:02:59.816Z,8.02
2023-04-29T07:05:26.382Z,7.73
2023-04-29T07:07:52.885Z,7.55
2023-04-29T07:10:19.261Z,8.00
2023-04-29T07:12:48.290Z,7.60
2023-04-29T07:15:17.663Z,7.80
2023-04-29T07:17:44.167Z,7.37
2023-04-29T07:20:14.984Z,7.32
2023-04-29T07:22:41.385Z,6.97
2023-04-29T07:25:08.207Z,6.82
2023-04-29T07:27:37.800Z,6.63
2023-04-29T07:30:07.418Z,6.70
2023-04-29T07:32:38.312Z,6.20
2023-04-29T07:35:08.350Z,6.93
2023-04-29T07:37:34.735Z,5.80
2023-04-29T07:40:02.697Z,5.93
2023-04-29T07:42:31.525Z,5.90
2023-04-29T07:44:58.605Z,6.10
2023-04-29T07:47:28.057Z,5.88
2023-04-29T07:49:57.576Z,5.13
2023-04-29T07:52:23.982Z,6.00
2023-04-29T07:57:36.602Z,5.85
2023-04-29T08:00:03.067Z,4.70
2023-04-29T08:02:29.602Z,5.30
2023-04-29T08:05:06.060Z,4.95
2023-04-29T08:07:32.881Z,4.93
2023-04-29T08:10:03.222Z,4.93
2023-04-29T08:12:31.043Z,4.95
2023-04-29T08:14:57.759Z,4.78
2023-04-29T08:17:27.162Z,4.72
2023-04-29T08:19:53.496Z,4.43
2023-04-29T08:22:19.868Z,4.82
2023-04-29T08:24:52.234Z,4.65
2023-04-29T08:27:22.523Z,4.55
2023-04-29T08:29:53.309Z,4.10
2023-04-29T08:32:22.776Z,4.20
2023-04-29T08:34:51.926Z,4.45
2023-04-29T08:37:26.966Z,4.65
2023-04-29T08:39:53.656Z,4.30
2023-04-29T08:42:37.660Z,4.82
2023-04-29T08:45:08.387Z,4.60
2023-04-29T08:47:38.764Z,4.30
2023-04-29T08:50:06.598Z,3.83
2023-04-29T08:52:37.088Z,4.25
2023-04-29T08:55:08.773Z,4.32
2023-04-29T08:57:39.920Z,3.80
2023-04-29T09:00:12.020Z,4.18
2023-04-29T09:03:12.021Z,4.10
2023-04-29T09:05:43.051Z,4.32
2023-04-29T09:08:24.052Z,3.83
2023-04-29T09:10:56.775Z,4.47
2023-04-29T09:13:27.815Z,4.70
2023-04-29T09:18:52.065Z,4.05
2023-04-29T09:21:53.953Z,4.35
2023-04-29T09:24:33.514Z,4.17
2023-04-29T09:27:05.093Z,4.32
2023-04-29T09:29:36.405Z,5.13
2023-04-29T09:32:19.441Z,4.30
2023-04-29T09:34:59.442Z,4.18
2023-04-29T09:40:43.426Z,3.67
2023-04-29T09:43:15.501Z,4.32
2023-04-29T09:45:44.166Z,4.03
2023-04-29T09:48:17.377Z,3.65
2023-04-29T09:51:07.159Z,3.30
2023-04-29T09:53:40.200Z,3.30
2023-04-29T09:56:09.738Z,4.45
2023-04-29T09:58:40.649Z,3.08
2023-04-29T10:01:09.479Z,3.80
2023-04-29T10:03:38.013Z,3.43
2023-04-29T10:06:08.555Z,3.28
2023-04-29T10:08:36.054Z,3.40
2023-04-29T10:11:08.916Z,3.70
2023-04-29T10:13:42.751Z,3.33
2023-04-29T10:16:19.870Z,3.40
2023-04-29T10:18:52.726Z,3.78
2023-04-29T10:21:38.425Z,3.20
2023-04-29T10:24:11.091Z,3.55
2023-04-29T10:26:39.555Z,2.88
2023-04-29T10:29:11.255Z,3.07
2023-04-29T10:31:41.163Z,3.72
2023-04-29T10:34:12.984Z,3.22
2023-04-29T10:39:42.921Z,2.90
2023-04-29T10:42:46.949Z,3.37
2023-04-29T10:45:35.716Z,3.30
2023-04-29T10:48:22.319Z,2.90
2023-04-29T10:50:51.596Z,2.80
2023-04-29T10:53:21.142Z,2.90
2023-04-29T10:55:56.192Z,2.70
2023-04-29T10:58:46.885Z,3.08
2023-04-29T11:01:15.610Z,3.20
2023-04-29T11:04:06.251Z,2.65
2023-04-29T11:09:29.534Z,2.67
2023-04-29T11:12:04.105Z,2.88
2023-04-29T11:14:51.998Z,2.97
2023-04-29T11:17:32.992Z,3.13
2023-04-29T11:20:00.904Z,3.13
2023-04-29T11:22:33.129Z,2.33
2023-04-29T11:25:12.088Z,2.40
2023-04-29T11:27:43.129Z,3.00
2023-04-29T11:30:14.361Z,2.88
2023-04-29T11:32:43.737Z,2.80
2023-04-29T11:35:12.511Z,2.90
2023-04-29T11:37:46.895Z,3.42
2023-04-29T11:40:20.743Z,3.45
2023-04-29T11:42:50.294Z,2.83
2023-04-29T11:45:22.776Z,3.40
2023-04-29T11:47:54.785Z,3.63
2023-04-29T11:53:13.035Z,3.47
2023-04-29T11:55:42.214Z,3.45
2023-04-29T11:58:11.632Z,3.10
2023-04-29T12:00:41.247Z,3.33
2023-04-29T12:03:39.026Z,2.90
2023-04-29T12:06:07.848Z,2.97
2023-04-29T12:08:37.955Z,3.25
2023-04-29T12:11:07.569Z,3.60
2023-04-29T12:16:23.072Z,3.00
2023-04-29T12:18:51.161Z,3.08
2023-04-29T12:26:48.104Z,3.00
2023-04-29T12:29:14.675Z,2.92
2023-04-29T12:31:41.754Z,3.20
2023-04-29T12:34:10.047Z,3.53
2023-04-29T12:36:42.641Z,3.35
2023-04-29T12:39:13.990Z,3.17
2023-04-29T12:41:43.881Z,3.35
2023-04-29T12:44:18.475Z,3.70
2023-04-29T12:46:44.966Z,3.42
2023-04-29T12:49:11.398Z,3.45
2023-04-29T12:51:41.923Z,3.33
2023-04-29T12:54:08.804Z,3.30
2023-04-29T12:56:35.299Z,3.28
2023-04-29T12:59:12.280Z,3.78
2023-04-29T13:01:47.081Z,3.83
2023-04-29T13:04:16.647Z,3.23
2023-04-29T13:06:50.935Z,3.70
2023-04-29T13:09:18.900Z,3.88
2023-04-29T13:11:53.910Z,3.88
2023-04-29T13:14:20.477Z,3.47
2023-04-29T13:16:47.400Z,3.37
2023-04-29T13:19:28.240Z,3.40
2023-04-29T13:22:06.710Z,3.10
2023-04-29T13:24:40.857Z,3.38
2023-04-29T13:27:07.245Z,3.25
2023-04-29T13:29:33.683Z,3.00
2023-04-29T13:34:46.509Z,3.38
2023-04-29T13:37:13.023Z,4.13
2023-04-29T13:39:39.716Z,3.97
2023-04-29T13:42:16.057Z,3.60
2023-04-29T13:44:53.096Z,3.28
2023-04-29T13:47:26.161Z,3.28
2023-04-29T13:50:44.620Z,3.22
2023-04-29T13:56:11.629Z,3.90
2023-04-29T14:03:30.415Z,3.83
2023-04-29T14:06:10.632Z,3.50
2023-04-29T14:08:44.423Z,3.37
2023-04-29T14:11:13.609Z,3.78
2023-04-29T14:13:40.524Z,4.00
2023-04-29T14:16:10.035Z,3.10
2023-04-29T14:18:40.411Z,3.58
2023-04-29T14:21:16.055Z,3.90
2023-04-29T14:23:42.494Z,3.63
2023-04-29T14:26:23.008Z,3.72
2023-04-29T14:29:00.221Z,3.58
2023-04-29T14:31:48.594Z,3.55
2023-04-29T14:34:24.525Z,3.23
2023-04-29T14:36:50.911Z,3.28
2023-04-29T14:39:23.046Z,3.30
2023-04-29T14:41:53.294Z,3.30
2023-04-29T14:44:22.782Z,4.00
2023-04-29T14:46:52.275Z,3.40
2023-04-29T14:49:19.119Z,3.40
2023-04-29T14:51:49.125Z,3.35
2023-04-29T14:54:16.180Z,3.30
2023-04-29T14:56:42.549Z,2.85
2023-04-29T14:59:12.535Z,3.50
2023-04-29T15:01:41.961Z,2.55
2023-04-29T15:04:16.285Z,2.65
2023-04-29T15:06:43.127Z,2.20
2023-04-29T15:09:12.365Z,2.00
2023-04-29T15:11:38.758Z,2.70
2023-04-29T15:14:08.022Z,2.55
2023-04-29T15:16:40.144Z,2.60
2023-04-29T15:19:09.580Z,2.08
2023-04-29T15:21:35.906Z,2.80
2023-04-29T15:24:02.878Z,2.23
2023-04-29T15:26:31.702Z,2.50
2023-04-29T15:28:58.153Z,3.03
2023-04-29T15:31:27.892Z,2.60
2023-04-29T15:33:58.674Z,2.33
2023-04-29T15:36:33.541Z,2.53
2023-04-29T15:39:00.171Z,2.03
2023-04-29T15:41:26.660Z,2.63
2023-04-29T15:44:01.440Z,2.13
2023-04-29T15:46:32.927Z,2.30
2023-04-29T15:49:06.560Z,2.43
2023-04-29T15:51:32.921Z,2.22
2023-04-29T15:54:02.704Z,2.78
2023-04-29T15:56:32.127Z,2.47
2023-04-29T15:59:01.642Z,2.45
2023-04-29T16:01:28.118Z,2.30
2023-04-29T16:03:54.493Z,2.50
2023-04-29T16:06:21.160Z,2.10
2023-04-29T16:08:51.020Z,2.55
2023-04-29T16:11:21.191Z,2.13
2023-04-29T16:13:50.038Z,2.47
2023-04-29T16:16:24.193Z,1.95
2023-04-29T16:18:56.050Z,1.75
2023-04-29T16:21:25.812Z,2.00
2023-04-29T16:23:57.333Z,1.75
2023-04-29T16:26:27.002Z,1.70
2023-04-29T16:28:53.460Z,2.00
2023-04-29T16:31:22.466Z,1.40
2023-04-29T16:33:51.808Z,1.30
2023-04-29T16:36:18.812Z,1.10
2023-04-29T16:38:47.887Z,0.77
2023-04-29T16:41:17.369Z,0.90
2023-04-29T16:43:47.052Z,0.70
2023-04-29T16:46:20.603Z,0.70
2023-04-29T16:48:53.881Z,1.05
2023-04-29T16:51:20.251Z,0.50
2023-04-29T16:53:46.569Z,0.52
2023-04-29T16:56:13.477Z,0.95
2023-04-29T16:58:39.837Z,0.40
2023-04-29T17:01:07.842Z,0.30
2023-04-29T17:03:34.787Z,0.60
2023-04-29T17:06:09.072Z,0.50
2023-04-29T17:08:35.609Z,0.38
2023-04-29T17:11:06.992Z,0.52
2023-04-29T17:13:33.485Z,0.90
2023-04-29T17:16:00.150Z,0.60
2023-04-29T17:18:30.009Z,0.50
2023-04-29T17:20:56.630Z,0.70
2023-04-29T17:23:23.095Z,0.40
2023-04-29T17:25:52.286Z,0.52
2023-04-29T17:28:21.721Z,0.40
2023-04-29T17:30:48.132Z,0.40
2023-04-29T17:33:17.725Z,0.40
2023-04-29T17:35:47.220Z,0.35
2023-04-29T17:38:16.793Z,0.40
2023-04-29T17:40:43.149Z,0.70
2023-04-29T17:43:09.617Z,0.50
2023-04-29T17:45:43.467Z,0.60
2023-04-29T17:48:14.769Z,0.55
2023-04-29T17:50:47.783Z,0.40
2023-04-29T17:53:17.167Z,0.60
2023-04-29T17:55:47.271Z,0.45
2023-04-29T17:58:20.994Z,0.52
2023-04-29T18:00:53.308Z,0.60
2023-04-29T18:03:23.601Z,0.50
2023-04-29T18:05:53.483Z,0.50
2023-04-29T18:08:23.488Z,0.40
2023-04-29T18:10:50.141Z,0.50
2023-04-29T18:13:19.947Z,0.40
2023-04-29T18:15:49.239Z,0.60
2023-04-29T18:18:17.710Z,0.60
2023-04-29T18:20:50.418Z,0.32
2023-04-29T18:23:16.963Z,0.30
2023-04-29T18:25:43.676Z,0.40
2023-04-29T18:28:24.806Z,0.50
2023-04-29T18:30:56.844Z,0.37
2023-04-29T18:33:35.976Z,1.00
2023-04-29T18:36:03.024Z,0.75
2023-04-29T18:38:38.410Z,0.60
2023-04-29T18:41:06.585Z,0.52
2023-04-29T18:43:35.565Z,0.60
2023-04-29T18:46:04.798Z,0.80
2023-04-29T18:48:31.634Z,0.80
2023-04-29T18:51:07.464Z,0.50
2023-04-29T18:53:34.484Z,1.17
2023-04-29T18:56:12.820Z,0.50
2023-04-29T19:01:20.028Z,1.00
2023-04-29T19:03:55.800Z,1.98
2023-04-29T19:06:22.285Z,1.33
2023-04-29T19:08:51.563Z,0.83
2023-04-29T19:11:17.990Z,1.85
2023-04-29T19:13:44.360Z,1.95
2023-04-29T19:16:17.000Z,1.10
2023-04-29T19:18:47.480Z,1.70
2023-04-29T19:21:24.306Z,1.50
2023-04-29T19:23:50.816Z,1.10
2023-04-29T19:26:18.839Z,0.93
2023-04-29T19:28:48.377Z,2.65
2023-04-29T19:31:15.060Z,3.45
2023-04-29T19:33:44.519Z,1.80
2023-04-29T19:36:14.293Z,1.80
2023-04-29T19:38:46.525Z,3.05
2023-04-29T19:41:16.470Z,1.40
2023-04-29T19:43:43.238Z,2.13
2023-04-29T19:46:13.301Z,2.13
2023-04-29T19:48:39.765Z,2.42
2023-04-29T19:51:06.874Z,1.90
2023-04-29T19:53:36.794Z,1.80
2023-04-29T19:56:03.214Z,2.10
2023-04-29T19:58:29.654Z,2.13
2023-04-29T20:01:11.438Z,2.25
2023-04-29T20:03:47.932Z,2.47
2023-04-29T20:06:16.651Z,2.75
2023-04-29T20:08:43.158Z,2.90
2023-04-29T20:11:13.328Z,2.97
2023-04-29T20:13:45.850Z,2.72
2023-04-29T20:16:15.109Z,2.88
2023-04-29T20:18:41.713Z,2.90
2023-04-29T20:21:12.236Z,3.78
2023-04-29T20:23:38.617Z,3.27
2023-04-29T20:26:05.016Z,3.92
2023-04-29T20:28:34.257Z,3.45
2023-04-29T20:31:03.880Z,3.97
2023-04-29T20:33:30.468Z,3.90
2023-04-29T20:36:06.797Z,3.70
2023-04-29T20:41:19.145Z,3.75
2023-04-29T20:43:48.382Z,3.80
2023-04-29T20:46:15.877Z,4.75
2023-04-29T20:48:51.249Z,4.43
2023-04-29T20:51:17.688Z,4.45
2023-04-29T20:53:48.755Z,4.50
2023-04-29T20:56:18.079Z,4.40
2023-04-29T20:58:44.683Z,4.50
2023-04-29T21:01:11.412Z,4.17
2023-04-29T21:03:41.319Z,4.15
2023-04-29T21:06:07.927Z,3.90
2023-04-29T21:08:34.364Z,4.20
2023-04-29T21:11:04.102Z,3.67
2023-04-29T21:13:30.882Z,4.07
2023-04-29T21:16:03.108Z,4.63
2023-04-29T21:18:29.570Z,4.93
2023-04-29T21:20:56.249Z,5.60
2023-04-29T21:23:26.322Z,4.45
2023-04-29T21:25:53.924Z,4.13
2023-04-29T21:28:20.355Z,4.20
2023-04-29T21:30:55.248Z,4.93
2023-04-29T21:33:21.785Z,4.38
2023-04-29T21:35:51.673Z,4.63
2023-04-29T21:38:21.589Z,4.40
2023-04-29T21:40:48.550Z,4.95
2023-04-29T21:43:18.101Z,5.30
2023-04-29T21:45:44.951Z,4.93
2023-04-29T21:48:27.434Z,5.15
2023-04-29T21:50:53.812Z,4.67
2023-04-29T21:53:20.867Z,5.22
2023-04-29T21:55:50.851Z,4.35
2023-04-29T21:58:25.660Z,4.40
2023-04-29T22:01:04.154Z,5.40
2023-04-29T22:03:38.287Z,5.50
2023-04-29T22:08:53.604Z,4.32
2023-04-29T22:11:24.608Z,4.00
2023-04-29T22:14:04.198Z,4.35
2023-04-29T22:16:36.758Z,4.40
2023-04-29T22:19:03.624Z,5.20
2023-04-29T22:21:31.623Z,8.15
2023-04-29T22:24:01.747Z,12.57
2023-04-29T22:26:28.165Z,7.88
2023-04-29T22:28:54.976Z,6.93
2023-04-29T22:31:29.241Z,5.28
2023-04-29T22:33:55.697Z,5.80
2023-04-29T22:36:22.261Z,5.07
2023-04-29T22:38:54.948Z,5.57
2023-04-29T22:41:21.637Z,5.63
2023-04-29T22:46:33.195Z,6.03
2023-04-29T22:49:02.948Z,5.35
2023-04-29T22:51:40.780Z,5.55
2023-04-29T22:54:07.532Z,5.83
2023-04-29T22:56:36.761Z,5.85
2023-04-29T22:59:06.752Z,6.35
2023-04-29T23:01:33.185Z,5.63
2023-04-29T23:03:59.633Z,5.72
2023-04-29T23:06:29.144Z,5.73
2023-04-29T23:08:55.643Z,6.53
2023-04-29T23:11:28.549Z,6.20
2023-04-29T23:13:54.994Z,5.65
2023-04-29T23:16:21.398Z,5.50
2023-04-29T23:18:53.114Z,5.63
2023-04-29T23:21:19.493Z,5.55
2023-04-29T23:23:45.836Z,6.00
2023-04-29T23:26:20.582Z,5.43
2023-04-29T23:28:47.083Z,5.65
2023-04-29T23:31:18.996Z,5.10
2023-04-29T23:33:48.906Z,6.18
2023-04-29T23:36:20.044Z,6.03
2023-04-29T23:38:49.253Z,5.90
2023-04-29T23:41:15.798Z,5.72
2023-04-29T23:43:42.501Z,6.73
2023-04-29T23:46:09.002Z,6.15
2023-04-29T23:48:35.965Z,6.35
2023-04-29T23:51:02.531Z,5.70
2023-04-29T23:53:33.060Z,5.80
2023-04-29T23:55:59.381Z,5.83
2023-04-29T23:58:25.792Z,6.80
